Airfield :
LOGIN :

Register | Disclaimer

   EN    FR    IT 

 










Legend :    VFR   Marginal VFR   IFR   Intensive IFR   Very Intensive IFR
Visi :
Ceiling :
>= 8 km
>= 3000ft
5 to 8 km
1000 to 3000 ft
1500m to 5 km
500 to 1000 ft
800 to 1500m
200 to 500 ft
< 800m
< 200 ft
Symbols :   Thunderstorms  Fog  Heavy snow  Heavy precipitations  Wind > 20 kt
SIGMETs :     Misc.  Thunderstorms  Icing  Turbulence  Mountain Waves  Volcanic Ashes






- Airport Elevation : 46 ft
- IATA code : SNN


EINN - Shannon

CURRENT METAR :
  • 121930Z 28007KT 9999 BKN033 17/12 Q1026 NOSIG

EXPIRED METARs :
  • 121900Z 28007KT 9999 BKN035 18/13 Q1026 NOSIG
  • 121830Z 28008KT 9999 BKN035 19/13 Q1026 NOSIG
  • 121800Z 27007KT 9999 BKN032 20/13 Q1026 NOSIG
  • 121730Z 26007KT 9999 BKN032 20/13 Q1026 NOSIG
  • 121700Z 26006KT 9999 BKN040 20/12 Q1026 NOSIG

TAF TAF EINN
Valid from the 12 at 18:00 until the 13 at 18:00 UTC


121700Z 1218/1318 26010KT 9999 BKN040
BECMG 1220/1222 VRB03KT
PROB40
TEMPO 1300/1307 3000 BR BKN004
BECMG 1307/1309 26010KT



MET'MAP, your aeronautical weather chart ! - Copyright ORBIFLY December 2007 - Disclaimer

ORBIFLY MET'MAP TEAM :

Programming & Development : Alexandra Zaïnal
Concept & original design : Baudouin d'Aumeries
Assistance for programming : Marc-Olivier Méhu
Technical & hardware support : Manuel Goepfert

Contact : metmap@orbifly.com




SOURCES & CREDITS :

   NOAA